createdAt,value
2017-02-17T00:09:18.129Z,282.6
2017-02-17T00:20:18.471Z,282.9
2017-02-17T00:31:17.957Z,283
2017-02-17T00:42:18.241Z,283.4
2017-02-17T00:53:18.560Z,283.4
2017-02-17T01:04:17.533Z,283
2017-02-17T01:15:17.849Z,284.2
2017-02-17T01:26:17.599Z,283.7
2017-02-17T01:37:18.825Z,282.9
2017-02-17T01:48:17.977Z,283.2
2017-02-17T01:59:17.637Z,283.6
2017-02-17T02:10:18.532Z,283.6
2017-02-17T02:21:17.600Z,284.5
2017-02-17T02:32:18.202Z,284.3
2017-02-17T02:43:18.401Z,284.4
2017-02-17T02:54:18.160Z,284.1
2017-02-17T03:05:17.853Z,284.2
2017-02-17T03:16:18.134Z,284.6
2017-02-17T03:27:17.628Z,284.9
2017-02-17T03:38:18.304Z,285
2017-02-17T03:49:18.194Z,285.2
2017-02-17T04:00:18.597Z,285
2017-02-17T04:11:17.472Z,284.3
2017-02-17T04:22:18.358Z,284.8
2017-02-17T04:33:17.654Z,285.4
2017-02-17T04:44:18.101Z,285
2017-02-17T04:55:18.254Z,285.2
2017-02-17T05:06:18.703Z,284.8
2017-02-17T05:17:18.216Z,284.1
2017-02-17T05:28:17.576Z,284.4
2017-02-17T05:39:17.878Z,285.1
2017-02-17T05:50:18.009Z,284.6
2017-02-17T06:01:18.592Z,284.6
2017-02-17T06:12:17.672Z,284
2017-02-17T06:23:18.057Z,284.3
2017-02-17T06:34:17.838Z,285
2017-02-17T06:45:17.812Z,284.7
2017-02-17T06:56:18.502Z,284.8
2017-02-17T07:07:17.647Z,284.3
2017-02-17T07:18:17.530Z,285
2017-02-17T07:29:17.597Z,285
2017-02-17T07:40:18.331Z,285.3
2017-02-17T07:51:17.857Z,284.2
2017-02-17T08:02:17.935Z,285
2017-02-17T08:13:18.823Z,285
2017-02-17T08:24:18.253Z,285.2
2017-02-17T08:35:18.335Z,285.1
2017-02-17T08:46:17.531Z,284.4
2017-02-17T08:57:18.029Z,283.5
2017-02-17T09:08:18.227Z,284.6
2017-02-17T09:19:17.912Z,285.5
2017-02-17T09:30:17.806Z,285.8
2017-02-17T09:41:18.670Z,284.2
2017-02-17T09:52:17.807Z,285.1
2017-02-17T10:03:17.955Z,285.7
2017-02-17T10:14:18.362Z,285.5
2017-02-17T10:25:18.801Z,285.7
2017-02-17T10:36:17.684Z,284.9
2017-02-17T10:47:18.497Z,285.1
2017-02-17T10:58:17.585Z,284.9
2017-02-17T11:09:17.660Z,284.8
2017-02-17T11:20:18.069Z,284.8
2017-02-17T11:31:17.968Z,284.7
2017-02-17T11:42:18.234Z,285.1
2017-02-17T11:53:18.201Z,285.1
2017-02-17T12:04:17.917Z,285.7
2017-02-17T12:15:17.912Z,285.1
2017-02-17T12:26:17.852Z,285.2
2017-02-17T12:37:17.829Z,285
2017-02-17T12:48:19.141Z,285
2017-02-17T12:59:17.909Z,285
2017-02-17T13:10:17.952Z,285
2017-02-17T13:21:17.755Z,284.5
2017-02-17T13:32:18.151Z,285
2017-02-17T13:43:18.422Z,285.2
2017-02-17T13:54:17.545Z,284.9
2017-02-17T14:05:18.022Z,284.9
2017-02-17T14:16:18.483Z,284.9
2017-02-17T14:27:17.926Z,285.1
2017-02-17T14:38:18.410Z,285.1
2017-02-17T14:49:17.579Z,285.3
2017-02-17T15:00:17.881Z,285.1
2017-02-17T15:11:18.440Z,285.1
2017-02-17T15:22:18.153Z,284.5
2017-02-17T15:33:18.520Z,284.8
2017-02-17T15:44:18.345Z,284.7
2017-02-17T15:55:17.679Z,284.8
2017-02-17T16:06:18.409Z,284.4
2017-02-17T16:17:18.353Z,284.5
2017-02-17T16:28:18.278Z,284.9
2017-02-17T16:39:18.613Z,284.7
2017-02-17T16:50:18.514Z,284.5
2017-02-17T17:01:17.968Z,284.2
2017-02-17T17:12:18.088Z,284.1
2017-02-17T17:23:17.669Z,284.5
2017-02-17T17:34:18.121Z,284.3
2017-02-17T17:45:18.703Z,283.8
2017-02-17T17:56:17.477Z,284.2
2017-02-17T18:07:18.156Z,283.9
2017-02-17T18:18:18.239Z,283.4
2017-02-17T18:29:18.647Z,284.8
2017-02-17T18:40:17.822Z,285.3
2017-02-17T18:51:18.294Z,285.7
2017-02-17T19:02:18.033Z,285.6
2017-02-17T19:13:17.338Z,286.2
2017-02-17T19:24:17.895Z,286
2017-02-17T19:35:17.545Z,286.3
2017-02-17T19:46:18.263Z,286.1
2017-02-17T19:57:18.754Z,286.3
2017-02-17T20:08:17.505Z,286.6
2017-02-17T20:19:18.130Z,285.1
2017-02-17T20:30:18.233Z,285.7
2017-02-17T20:41:18.414Z,284.9
2017-02-17T20:52:18.564Z,285.5
2017-02-17T21:03:18.384Z,285.1
2017-02-17T21:14:17.774Z,286.1
2017-02-17T21:25:17.797Z,285.7
2017-02-17T21:36:17.754Z,285.9
2017-02-17T21:47:18.609Z,285.9
2017-02-17T21:58:18.012Z,285.7
2017-02-17T22:09:17.771Z,285.9
2017-02-17T22:20:18.524Z,285.3
2017-02-17T22:31:18.031Z,285.1
2017-02-17T22:42:17.609Z,285.2
2017-02-17T22:53:18.144Z,285.4
2017-02-17T23:04:17.705Z,284.9
2017-02-17T23:15:18.246Z,285.2
2017-02-17T23:26:17.678Z,285.3
2017-02-17T23:37:18.132Z,285.3
2017-02-17T23:48:17.409Z,285.3
2017-02-17T23:59:18.800Z,284.9
